aviador You're here:

GMAD Decoded Metar

AL MASSIRA MC in MOROCCO
Report Time2017-10-23 05:30:00
UTC Time2017-10-23 05:52:55
Flight Rules vfr VFR
Wind150° at 04 kt
W.Decomp.*RWY 10: 2.4 kt HW 3.2 kt RCW
W.Rank150° ranks 25
Current wind is above 150° avg. (3.8)
Visibility8000 m
Phenomena:N/A
Clouds:N/A
Expected CloudBase > 800 ft AGL from Temp-Dew spread
CeilingNone
Temp16°C (ISA +1)
Dew Point14°C (88% RH)
AAT15.8°C
QNH1017 hPa
Density Alt495 ft
Elevation243 ft
Report Wrong Elevation
Raw Report
GMAD 230530Z 15004KT 110V180 8000 NSC 16/14 Q1017 NOSIG=

Extra information for GMAD:More info

Metar Taf Metar & Taf Last 4 Metars F.Rules Stats Wind Profile Meteogram Temp Stats Airport Information Weather charts Add Link Nearby VenuesMetar ALERT Operation Metar Decoded Social comments